createdAt,value
2019-05-07T00:00:03.331Z,92.54
2019-05-07T00:01:02.823Z,92.73
2019-05-07T00:02:02.736Z,92.73
2019-05-07T00:03:03.111Z,93.02
2019-05-07T00:04:01.951Z,93.07
2019-05-07T00:05:02.681Z,93.36
2019-05-07T00:06:02.822Z,93.65
2019-05-07T00:07:02.354Z,94.04
2019-05-07T00:08:02.930Z,93.75
2019-05-07T00:09:03.075Z,93.65
2019-05-07T00:10:00.580Z,94.33
2019-05-07T00:11:02.313Z,94.13
2019-05-07T00:12:02.741Z,94.33
2019-05-07T00:13:02.234Z,93.65
2019-05-07T00:14:00.409Z,94.33
2019-05-07T00:15:02.308Z,93.94
2019-05-07T00:16:01.919Z,94.33
2019-05-07T00:17:02.212Z,95.10
2019-05-07T00:18:00.303Z,94.13
2019-05-07T00:19:02.042Z,94.71
2019-05-07T00:20:02.145Z,94.33
2019-05-07T00:21:00.068Z,94.47
2019-05-07T00:22:02.204Z,93.99
2019-05-07T00:22:59.993Z,94.23
2019-05-07T00:24:02.147Z,94.04
2019-05-07T00:24:59.902Z,94.13
2019-05-07T00:26:02.231Z,94.04
2019-05-07T00:26:59.816Z,93.94
2019-05-07T00:27:59.771Z,93.94
2019-05-07T00:29:02.146Z,94.33
2019-05-07T00:29:59.767Z,94.81
2019-05-07T00:30:59.644Z,94.81
2019-05-07T00:31:59.578Z,95.39
2019-05-07T00:32:59.545Z,95.97
2019-05-07T00:33:59.503Z,95.78
2019-05-07T00:34:59.457Z,96.65
2019-05-07T00:35:59.524Z,96.55
2019-05-07T00:36:59.367Z,96.89
2019-05-07T00:37:59.339Z,97.04
2019-05-07T00:38:59.286Z,96.89
2019-05-07T00:39:59.221Z,96.70
2019-05-07T00:40:59.194Z,97.09
2019-05-07T00:42:03.692Z,97.38
2019-05-07T00:42:59.098Z,96.80
2019-05-07T00:43:59.000Z,97.09
2019-05-07T00:45:13.284Z,97.38
2019-05-07T00:45:58.952Z,97.09
2019-05-07T00:46:58.908Z,97.28
2019-05-07T00:47:59.076Z,96.94
2019-05-07T00:48:58.838Z,96.84
2019-05-07T00:49:58.786Z,97.18
2019-05-07T00:50:58.766Z,97.38
2019-05-07T00:51:58.684Z,97.18
2019-05-07T00:52:58.660Z,97.77
2019-05-07T00:53:58.707Z,97.77
2019-05-07T00:54:58.550Z,98.30
2019-05-07T00:55:58.517Z,98.20
2019-05-07T00:56:58.485Z,97.52
2019-05-07T00:57:58.428Z,97.42
2019-05-07T00:58:58.396Z,97.42
2019-05-07T00:59:58.550Z,97.67
2019-05-07T01:00:58.304Z,97.81
2019-05-07T01:01:58.245Z,97.77
2019-05-07T01:02:58.192Z,98.54
2019-05-07T01:03:58.169Z,98.44
2019-05-07T01:04:58.102Z,98.73
2019-05-07T01:05:58.166Z,98.15
2019-05-07T01:06:58.024Z,97.77
2019-05-07T01:07:57.969Z,97.38
2019-05-07T01:08:57.931Z,97.47
2019-05-07T01:09:57.890Z,97.57
2019-05-07T01:10:57.846Z,97.67
2019-05-07T01:11:58.014Z,97.57
2019-05-07T01:12:59.334Z,97.57
2019-05-07T01:13:57.712Z,97.96
2019-05-07T01:14:57.679Z,97.96
2019-05-07T01:15:57.623Z,98.35
2019-05-07T01:16:57.565Z,98.25
2019-05-07T01:17:57.739Z,98.05
2019-05-07T01:18:57.476Z,97.96
2019-05-07T01:19:57.443Z,97.47
2019-05-07T01:20:57.410Z,97.57
2019-05-07T01:21:57.362Z,97.38
2019-05-07T01:22:57.305Z,97.28
2019-05-07T01:23:57.361Z,97.38
2019-05-07T01:24:57.206Z,97.47
2019-05-07T01:25:57.175Z,97.28
2019-05-07T01:26:57.125Z,97.38
2019-05-07T01:27:57.035Z,97.18
2019-05-07T01:28:57.040Z,97.47
2019-05-07T01:29:57.194Z,97.96
2019-05-07T01:30:56.951Z,97.47
2019-05-07T01:31:56.904Z,98.15
2019-05-07T01:32:56.862Z,97.77
2019-05-07T01:33:56.817Z,98.15
2019-05-07T01:34:56.779Z,98.25
2019-05-07T01:35:56.825Z,98.35
2019-05-07T01:36:56.693Z,98.63
2019-05-07T01:37:56.624Z,98.35
2019-05-07T01:38:56.603Z,98.54
2019-05-07T01:39:56.547Z,98.25
2019-05-07T01:40:56.489Z,98.93
2019-05-07T01:41:56.667Z,98.93
2019-05-07T01:42:56.413Z,98.73
2019-05-07T01:43:56.355Z,99.07
2019-05-07T01:44:56.331Z,99.69
2019-05-07T01:45:56.277Z,99.84
2019-05-07T01:46:56.233Z,99.51
2019-05-07T01:47:56.305Z,99.46
2019-05-07T01:48:57.547Z,99.51
2019-05-07T01:49:56.086Z,99.26
2019-05-07T01:50:56.055Z,99.84
2019-05-07T01:51:56.020Z,99.99
2019-05-07T01:52:55.951Z,99.36
2019-05-07T01:53:56.031Z,99.74
2019-05-07T01:54:55.869Z,99.99
2019-05-07T01:55:55.840Z,99.99
2019-05-07T01:56:55.793Z,99.99
2019-05-07T01:57:55.739Z,99.99
2019-05-07T01:58:55.701Z,99.99
2019-05-07T01:59:55.863Z,99.79
2019-05-07T02:00:55.613Z,99.99
2019-05-07T02:01:55.559Z,99.99
2019-05-07T02:02:55.523Z,99.99
2019-05-07T02:03:55.465Z,99.99
2019-05-07T02:04:55.421Z,99.99
2019-05-07T02:05:55.581Z,99.99
2019-05-07T02:06:55.334Z,99.69
2019-05-07T02:07:55.291Z,99.99
2019-05-07T02:08:55.245Z,99.99
2019-05-07T02:09:55.215Z,99.99
2019-05-07T02:10:55.171Z,99.99
2019-05-07T02:11:55.223Z,99.99
2019-05-07T02:12:55.066Z,99.99
2019-05-07T02:13:55.021Z,99.99
2019-05-07T02:14:54.963Z,99.99
2019-05-07T02:16:01.235Z,99.99
2019-05-07T02:16:54.879Z,99.99
2019-05-07T02:17:55.051Z,99.99
2019-05-07T02:18:54.796Z,99.99
2019-05-07T02:19:54.747Z,99.99
2019-05-07T02:20:54.693Z,99.99
2019-05-07T02:21:54.670Z,99.99
2019-05-07T02:22:54.616Z,99.99
2019-05-07T02:23:54.670Z,99.99
2019-05-07T02:24:54.528Z,99.99
2019-05-07T02:25:54.481Z,99.99
2019-05-07T02:26:54.436Z,99.99
2019-05-07T02:27:54.393Z,99.99
2019-05-07T02:28:54.345Z,99.99
2019-05-07T02:29:54.498Z,99.99
2019-05-07T02:30:54.268Z,99.99
2019-05-07T02:31:54.225Z,99.99
2019-05-07T02:32:54.282Z,99.99
2019-05-07T02:33:54.425Z,99.99
2019-05-07T02:34:54.700Z,99.99
2019-05-07T02:35:54.141Z,99.99
2019-05-07T02:36:54.061Z,99.99
2019-05-07T02:37:56.712Z,99.99
2019-05-07T02:38:53.893Z,99.99
2019-05-07T02:39:53.840Z,99.99
2019-05-07T02:40:53.804Z,99.99
2019-05-07T02:41:54.399Z,99.99
2019-05-07T02:42:54.215Z,99.99
2019-05-07T02:43:53.972Z,99.99
2019-05-07T02:44:53.623Z,99.99
2019-05-07T02:45:53.781Z,99.99
2019-05-07T02:46:53.539Z,99.99
2019-05-07T02:47:53.603Z,99.99
2019-05-07T02:48:53.806Z,99.99
2019-05-07T02:49:53.846Z,99.99
2019-05-07T02:50:54.006Z,99.99
2019-05-07T02:51:53.356Z,99.99
2019-05-07T02:52:53.875Z,99.99
2019-05-07T02:53:53.761Z,99.99
2019-05-07T02:54:54.060Z,99.99
2019-05-07T02:55:53.127Z,99.99
2019-05-07T02:56:53.458Z,99.99
2019-05-07T02:57:53.979Z,99.99
2019-05-07T02:58:52.985Z,99.99
2019-05-07T02:59:54.397Z,99.99
2019-05-07T03:00:53.338Z,99.99
2019-05-07T03:01:53.815Z,99.99
2019-05-07T03:02:53.213Z,99.99
2019-05-07T03:03:53.038Z,99.99
2019-05-07T03:04:53.375Z,99.99
2019-05-07T03:05:53.657Z,99.99
2019-05-07T03:06:54.218Z,99.99
2019-05-07T03:07:53.598Z,99.99
2019-05-07T03:08:53.412Z,99.99
2019-05-07T03:09:53.811Z,99.99
2019-05-07T03:10:52.829Z,99.99
2019-05-07T03:11:53.097Z,99.99
2019-05-07T03:12:53.645Z,99.99
2019-05-07T03:13:53.728Z,99.99
2019-05-07T03:14:53.608Z,99.99
2019-05-07T03:15:53.986Z,99.99
2019-05-07T03:16:53.691Z,99.99
2019-05-07T03:17:53.819Z,99.99
2019-05-07T03:18:53.309Z,99.99
2019-05-07T03:19:53.484Z,99.99
2019-05-07T03:20:53.550Z,99.99
2019-05-07T03:21:53.707Z,99.99
2019-05-07T03:22:53.828Z,99.99
2019-05-07T03:23:53.879Z,99.99
2019-05-07T03:24:52.972Z,99.99
2019-05-07T03:25:54.188Z,99.99
2019-05-07T03:26:53.617Z,99.99
2019-05-07T03:27:53.557Z,99.99
2019-05-07T03:28:53.600Z,99.99
2019-05-07T03:29:53.482Z,99.99
2019-05-07T03:30:56.294Z,99.99
2019-05-07T03:31:56.300Z,99.99
2019-05-07T03:32:56.086Z,99.99
2019-05-07T03:33:56.005Z,99.99
2019-05-07T03:34:56.935Z,99.99
2019-05-07T03:35:56.265Z,99.99
2019-05-07T03:36:56.455Z,99.99
2019-05-07T03:37:54.425Z,99.99
2019-05-07T03:38:53.662Z,99.99
2019-05-07T03:39:53.518Z,99.99
2019-05-07T03:40:53.236Z,99.99
2019-05-07T03:41:53.097Z,99.99
2019-05-07T03:42:53.444Z,99.99
2019-05-07T03:43:52.694Z,99.99
2019-05-07T03:44:53.798Z,99.99
2019-05-07T03:45:53.721Z,99.99
2019-05-07T03:46:57.738Z,99.99
2019-05-07T03:47:53.905Z,99.99
2019-05-07T03:48:53.172Z,99.99
2019-05-07T03:49:53.335Z,99.99
2019-05-07T03:50:52.924Z,99.99
2019-05-07T03:51:53.006Z,99.99
2019-05-07T03:52:50.552Z,99.99
2019-05-07T03:53:53.429Z,99.99
2019-05-07T03:54:50.469Z,99.99
2019-05-07T03:55:53.396Z,99.99
2019-05-07T03:56:52.818Z,99.99
2019-05-07T03:57:52.696Z,99.99
2019-05-07T03:58:52.921Z,99.99
2019-05-07T03:59:53.344Z,99.99
2019-05-07T04:00:53.185Z,99.99
2019-05-07T04:01:50.141Z,99.99
2019-05-07T04:02:52.640Z,99.99
2019-05-07T04:03:53.106Z,99.99
2019-05-07T04:04:52.669Z,99.99
2019-05-07T04:05:52.780Z,99.99
2019-05-07T04:06:49.921Z,99.99
2019-05-07T04:07:49.854Z,99.99
2019-05-07T04:08:52.971Z,99.99
2019-05-07T04:09:49.770Z,99.99
2019-05-07T04:10:49.731Z,99.99
2019-05-07T04:11:52.836Z,99.99
2019-05-07T04:12:49.651Z,99.99
2019-05-07T04:13:49.596Z,99.99
2019-05-07T04:14:49.547Z,99.99
2019-05-07T04:15:52.363Z,99.99
2019-05-07T04:16:49.444Z,99.99
2019-05-07T04:17:49.626Z,99.99
2019-05-07T04:18:49.396Z,99.99
2019-05-07T04:19:49.337Z,99.99
2019-05-07T04:20:49.283Z,99.99
2019-05-07T04:21:49.239Z,99.99
2019-05-07T04:22:49.182Z,99.99
2019-05-07T04:23:49.225Z,99.99
2019-05-07T04:24:49.079Z,99.99
2019-05-07T04:25:49.058Z,99.99
2019-05-07T04:26:49.009Z,99.99
2019-05-07T04:27:48.942Z,99.99
2019-05-07T04:28:48.909Z,99.99
2019-05-07T04:29:48.955Z,99.99
2019-05-07T04:30:48.840Z,99.99
2019-05-07T04:31:48.782Z,99.99
2019-05-07T04:32:48.723Z,99.99
2019-05-07T04:33:48.694Z,99.99
2019-05-07T04:34:48.635Z,99.99
2019-05-07T04:35:48.778Z,99.99
2019-05-07T04:36:48.543Z,99.99
2019-05-07T04:37:48.510Z,99.99
2019-05-07T04:38:48.452Z,99.99
2019-05-07T04:39:48.408Z,99.99
2019-05-07T04:40:48.372Z,99.99
2019-05-07T04:41:48.512Z,99.99
2019-05-07T04:42:48.282Z,99.99
2019-05-07T04:43:48.228Z,99.99
2019-05-07T04:44:48.208Z,99.99
2019-05-07T04:45:48.145Z,99.99
2019-05-07T04:46:48.523Z,99.99
2019-05-07T04:47:48.231Z,99.99
2019-05-07T04:48:48.018Z,99.99
2019-05-07T04:49:47.959Z,99.99
2019-05-07T04:50:48.152Z,99.99
2019-05-07T04:51:47.848Z,99.99
2019-05-07T04:52:47.832Z,99.99
2019-05-07T04:53:47.968Z,99.99
2019-05-07T04:54:47.728Z,99.99
2019-05-07T04:55:47.676Z,99.99
2019-05-07T04:56:47.635Z,99.99
2019-05-07T04:57:47.583Z,99.99
2019-05-07T04:58:47.545Z,99.99
2019-05-07T04:59:47.589Z,99.99
2019-05-07T05:00:47.456Z,99.99
2019-05-07T05:01:47.399Z,99.99
2019-05-07T05:02:47.368Z,99.99
2019-05-07T05:03:47.310Z,99.99
2019-05-07T05:04:47.264Z,99.99
2019-05-07T05:05:47.344Z,99.99
2019-05-07T05:06:47.167Z,99.99
2019-05-07T05:07:47.134Z,99.99
2019-05-07T05:08:47.188Z,99.99
2019-05-07T05:09:47.029Z,99.99
2019-05-07T05:10:46.991Z,99.99
2019-05-07T05:11:47.050Z,99.99
2019-05-07T05:12:46.908Z,99.99
2019-05-07T05:13:46.853Z,99.99
2019-05-07T05:14:46.791Z,99.99
2019-05-07T05:15:46.767Z,99.99
2019-05-07T05:16:46.712Z,99.99
2019-05-07T05:17:50.758Z,99.99
2019-05-07T05:18:46.619Z,99.99
2019-05-07T05:19:46.575Z,99.99
2019-05-07T05:20:46.525Z,99.99
2019-05-07T05:21:46.484Z,99.99
2019-05-07T05:22:46.436Z,99.99
2019-05-07T05:23:46.479Z,99.99
2019-05-07T05:24:46.346Z,99.99
2019-05-07T05:25:46.312Z,99.99
2019-05-07T05:26:46.263Z,99.99
2019-05-07T05:27:46.208Z,99.99
2019-05-07T05:28:46.158Z,99.99
2019-05-07T05:29:46.229Z,99.99
2019-05-07T05:30:46.068Z,99.99
2019-05-07T05:31:46.025Z,99.99
2019-05-07T05:32:45.978Z,99.99
2019-05-07T05:33:45.944Z,99.99
2019-05-07T05:34:45.884Z,99.99
2019-05-07T05:35:46.053Z,99.99
2019-05-07T05:36:45.807Z,99.99
2019-05-07T05:37:45.745Z,99.99
2019-05-07T05:38:45.699Z,99.99
2019-05-07T05:39:45.646Z,99.99
2019-05-07T05:40:45.607Z,99.99
2019-05-07T05:41:45.780Z,99.99
2019-05-07T05:42:45.533Z,99.99
2019-05-07T05:43:45.469Z,99.99
2019-05-07T05:44:45.415Z,99.99
2019-05-07T05:45:45.381Z,99.99
2019-05-07T05:46:45.339Z,99.99
2019-05-07T05:47:45.490Z,99.99
2019-05-07T05:48:45.256Z,99.99
2019-05-07T05:49:45.211Z,99.99
2019-05-07T05:50:45.152Z,99.99
2019-05-07T05:51:45.095Z,99.99
2019-05-07T05:52:45.057Z,99.99
2019-05-07T05:53:45.215Z,99.99
2019-05-07T05:54:44.961Z,99.99
2019-05-07T05:55:44.922Z,99.99
2019-05-07T05:56:44.869Z,99.99
2019-05-07T05:57:44.843Z,99.99
2019-05-07T05:58:44.797Z,99.99
2019-05-07T05:59:51.193Z,99.99
2019-05-07T06:00:44.693Z,99.99
2019-05-07T06:01:44.637Z,99.99
2019-05-07T06:02:44.615Z,99.99
2019-05-07T06:03:44.556Z,99.99
2019-05-07T06:04:44.518Z,99.99
2019-05-07T06:05:44.664Z,99.99
2019-05-07T06:06:44.418Z,99.99
2019-05-07T06:07:44.375Z,99.99
2019-05-07T06:08:44.327Z,99.99
2019-05-07T06:09:44.277Z,99.99
2019-05-07T06:10:44.234Z,99.99
2019-05-07T06:11:44.389Z,99.99
2019-05-07T06:12:44.152Z,99.99
2019-05-07T06:13:44.110Z,99.99
2019-05-07T06:14:44.060Z,99.99
2019-05-07T06:15:44.005Z,99.99
2019-05-07T06:16:43.949Z,99.99
2019-05-07T06:17:44.027Z,99.99
2019-05-07T06:18:43.869Z,99.99
2019-05-07T06:19:43.835Z,99.99
2019-05-07T06:20:43.780Z,99.99
2019-05-07T06:21:43.719Z,99.99
2019-05-07T06:22:43.686Z,99.99
2019-05-07T06:23:43.836Z,99.99
2019-05-07T06:24:43.582Z,99.99
2019-05-07T06:25:43.559Z,99.99
2019-05-07T06:26:43.502Z,99.99
2019-05-07T06:27:43.445Z,99.99
2019-05-07T06:28:43.411Z,99.99
2019-05-07T06:29:43.453Z,99.99
2019-05-07T06:30:43.320Z,99.99
2019-05-07T06:31:43.273Z,99.99
2019-05-07T06:32:43.229Z,99.99
2019-05-07T06:33:43.173Z,99.99
2019-05-07T06:34:44.732Z,99.99
2019-05-07T06:35:43.280Z,99.99
2019-05-07T06:36:43.054Z,99.99
2019-05-07T06:37:43.056Z,99.99
2019-05-07T06:38:42.948Z,99.99
2019-05-07T06:39:42.896Z,99.99
2019-05-07T06:40:42.854Z,99.99
2019-05-07T06:41:43.016Z,99.99
2019-05-07T06:42:42.839Z,99.99
2019-05-07T06:43:42.721Z,99.99
2019-05-07T06:44:42.819Z,99.99
2019-05-07T06:45:42.633Z,99.99
2019-05-07T06:46:42.576Z,99.99
2019-05-07T06:47:42.701Z,99.99
2019-05-07T06:48:45.935Z,99.99
2019-05-07T06:49:42.878Z,99.99
2019-05-07T06:50:43.197Z,99.99
2019-05-07T06:51:42.346Z,99.99
2019-05-07T06:52:42.630Z,99.99
2019-05-07T06:53:42.404Z,99.99
2019-05-07T06:54:42.832Z,99.99
2019-05-07T06:55:42.792Z,99.99
2019-05-07T06:56:42.221Z,99.99
2019-05-07T06:57:42.656Z,99.99
2019-05-07T06:58:42.044Z,99.99
2019-05-07T06:59:42.456Z,99.99
2019-05-07T07:00:42.298Z,99.99
2019-05-07T07:01:42.366Z,99.99
2019-05-07T07:02:42.030Z,99.99
2019-05-07T07:03:42.023Z,99.99
2019-05-07T07:04:42.384Z,99.99
2019-05-07T07:05:42.575Z,99.99
2019-05-07T07:06:42.709Z,99.99
2019-05-07T07:07:42.239Z,99.99
2019-05-07T07:08:41.993Z,99.99
2019-05-07T07:09:42.446Z,99.99
2019-05-07T07:10:42.664Z,99.99
2019-05-07T07:11:42.376Z,99.99
2019-05-07T07:12:42.503Z,99.99
2019-05-07T07:13:42.673Z,99.99
2019-05-07T07:14:42.355Z,99.99
2019-05-07T07:15:42.687Z,99.99
2019-05-07T07:16:42.060Z,99.99
2019-05-07T07:17:41.900Z,99.99
2019-05-07T07:18:49.547Z,99.99
2019-05-07T07:19:42.801Z,99.99
2019-05-07T07:20:43.025Z,99.99
2019-05-07T07:21:42.178Z,99.99
2019-05-07T07:22:42.582Z,99.99
2019-05-07T07:23:42.960Z,99.99
2019-05-07T07:24:42.399Z,99.99
2019-05-07T07:25:42.871Z,99.99
2019-05-07T07:26:42.203Z,99.99
2019-05-07T07:27:42.815Z,99.99
2019-05-07T07:28:42.775Z,99.99
2019-05-07T07:29:41.930Z,99.99
2019-05-07T07:30:42.068Z,99.99
2019-05-07T07:31:42.547Z,99.99
2019-05-07T07:32:42.494Z,99.99
2019-05-07T07:33:40.416Z,99.99
2019-05-07T07:34:42.560Z,99.99
2019-05-07T07:35:42.730Z,99.99
2019-05-07T07:36:42.303Z,99.99
2019-05-07T07:37:40.245Z,99.99
2019-05-07T07:38:42.078Z,99.99
2019-05-07T07:39:40.140Z,99.99
2019-05-07T07:40:42.168Z,99.99
2019-05-07T07:41:42.136Z,99.99
2019-05-07T07:42:40.017Z,99.99
2019-05-07T07:43:41.922Z,99.99
2019-05-07T07:44:39.923Z,99.99
2019-05-07T07:45:41.971Z,99.99
2019-05-07T07:46:42.275Z,99.99
2019-05-07T07:47:42.147Z,99.99
2019-05-07T07:48:39.738Z,99.99
2019-05-07T07:49:41.922Z,99.99
2019-05-07T07:50:42.014Z,99.99
2019-05-07T07:51:44.511Z,99.99
2019-05-07T07:52:39.548Z,99.99
2019-05-07T07:53:39.509Z,99.99
2019-05-07T07:54:39.462Z,99.99
2019-05-07T07:55:39.404Z,99.99
2019-05-07T07:56:50.050Z,99.99
2019-05-07T07:57:39.322Z,99.99
2019-05-07T07:58:39.266Z,99.99
2019-05-07T07:59:39.242Z,99.99
2019-05-07T08:00:39.186Z,99.99
2019-05-07T08:01:39.129Z,99.99
2019-05-07T08:02:39.105Z,99.99
2019-05-07T08:03:39.049Z,99.99
2019-05-07T08:04:38.990Z,99.99
2019-05-07T08:05:38.944Z,99.99
2019-05-07T08:06:38.910Z,99.99
2019-05-07T08:07:38.865Z,99.99
2019-05-07T08:08:38.814Z,99.99
2019-05-07T08:09:38.773Z,99.99
2019-05-07T08:10:38.730Z,99.99
2019-05-07T08:11:38.679Z,99.99
2019-05-07T08:12:38.635Z,99.99
2019-05-07T08:13:38.588Z,99.99
2019-05-07T08:14:38.534Z,99.99
2019-05-07T08:15:38.498Z,99.99
2019-05-07T08:16:38.449Z,99.99
2019-05-07T08:17:38.400Z,99.99
2019-05-07T08:18:38.383Z,99.99
2019-05-07T08:19:38.300Z,99.99
2019-05-07T08:20:38.277Z,99.99
2019-05-07T08:21:38.215Z,99.99
2019-05-07T08:22:38.182Z,99.99
2019-05-07T08:23:38.114Z,99.99
2019-05-07T08:24:38.083Z,99.99
2019-05-07T08:25:38.034Z,99.99
2019-05-07T08:26:37.988Z,99.99
2019-05-07T08:27:37.955Z,99.99
2019-05-07T08:28:37.886Z,99.99
2019-05-07T08:29:37.838Z,99.99
2019-05-07T08:30:37.805Z,99.99
2019-05-07T08:31:37.745Z,99.99
2019-05-07T08:32:37.714Z,99.99
2019-05-07T08:33:37.662Z,99.99
2019-05-07T08:34:37.619Z,99.99
2019-05-07T08:35:37.574Z,99.99
2019-05-07T08:36:37.537Z,99.99
2019-05-07T08:37:37.477Z,99.99
2019-05-07T08:38:37.424Z,99.99
2019-05-07T08:39:37.388Z,99.99
2019-05-07T08:40:37.331Z,99.99
2019-05-07T08:41:37.299Z,99.99
2019-05-07T08:42:37.241Z,99.99
2019-05-07T08:43:37.193Z,99.99
2019-05-07T08:44:37.147Z,99.99
2019-05-07T08:45:37.124Z,99.99
2019-05-07T08:46:37.068Z,99.99
2019-05-07T08:47:37.009Z,99.99
2019-05-07T08:48:36.963Z,99.99
2019-05-07T08:49:39.920Z,99.99
2019-05-07T08:50:36.883Z,99.99
2019-05-07T08:51:36.828Z,99.99
2019-05-07T08:52:36.803Z,99.99
2019-05-07T08:53:36.746Z,99.99
2019-05-07T08:54:36.699Z,99.99
2019-05-07T08:55:36.641Z,99.99
2019-05-07T08:56:36.622Z,99.99
2019-05-07T08:57:36.573Z,99.99
2019-05-07T08:58:36.525Z,99.99
2019-05-07T08:59:36.486Z,99.99
2019-05-07T09:00:36.438Z,99.99
2019-05-07T09:01:36.374Z,99.99
2019-05-07T09:02:36.320Z,99.99
2019-05-07T09:03:36.286Z,99.99
2019-05-07T09:04:36.238Z,99.99
2019-05-07T09:05:36.182Z,99.99
2019-05-07T09:06:36.137Z,99.99
2019-05-07T09:07:36.113Z,99.99
2019-05-07T09:08:36.061Z,99.99
2019-05-07T09:09:36.008Z,99.99
2019-05-07T09:10:35.968Z,99.99
2019-05-07T09:11:35.913Z,99.99
2019-05-07T09:12:35.879Z,99.99
2019-05-07T09:13:35.834Z,99.99
2019-05-07T09:14:35.779Z,99.99
2019-05-07T09:15:35.728Z,99.99
2019-05-07T09:16:35.682Z,99.99
2019-05-07T09:17:35.627Z,99.99
2019-05-07T09:18:35.581Z,99.99
2019-05-07T09:19:47.299Z,99.99
2019-05-07T09:20:35.518Z,99.99
2019-05-07T09:21:35.465Z,99.99
2019-05-07T09:22:35.397Z,99.99
2019-05-07T09:23:35.351Z,99.99
2019-05-07T09:24:35.303Z,99.99
2019-05-07T09:25:35.278Z,99.99
2019-05-07T09:26:35.211Z,99.99
2019-05-07T09:27:35.181Z,99.99
2019-05-07T09:28:35.127Z,99.99
2019-05-07T09:29:35.086Z,99.99
2019-05-07T09:30:35.037Z,99.99
2019-05-07T09:31:35.005Z,99.99
2019-05-07T09:32:34.933Z,99.99
2019-05-07T09:33:34.911Z,99.99
2019-05-07T09:34:34.854Z,99.99
2019-05-07T09:35:34.807Z,99.99
2019-05-07T09:36:34.758Z,99.99
2019-05-07T09:37:34.714Z,99.99
2019-05-07T09:38:34.667Z,99.99
2019-05-07T09:39:34.609Z,99.99
2019-05-07T09:40:34.569Z,99.99
2019-05-07T09:41:34.541Z,99.99
2019-05-07T09:42:34.485Z,99.99
2019-05-07T09:43:34.424Z,99.99
2019-05-07T09:44:34.391Z,99.99
2019-05-07T09:45:34.333Z,99.99
2019-05-07T09:46:34.329Z,99.99
2019-05-07T09:47:34.240Z,99.99
2019-05-07T09:48:34.221Z,99.99
2019-05-07T09:49:34.160Z,99.99
2019-05-07T09:50:34.117Z,99.99
2019-05-07T09:51:34.082Z,99.99
2019-05-07T09:52:34.024Z,99.99
2019-05-07T09:53:33.978Z,99.99
2019-05-07T09:54:33.917Z,99.99
2019-05-07T09:55:33.876Z,99.99
2019-05-07T09:56:33.835Z,99.99
2019-05-07T09:57:34.792Z,99.99
2019-05-07T09:58:38.814Z,99.99
2019-05-07T09:59:33.714Z,99.99
2019-05-07T10:00:33.664Z,99.99
2019-05-07T10:01:33.615Z,99.99
2019-05-07T10:02:33.569Z,99.99
2019-05-07T10:03:33.502Z,99.99
2019-05-07T10:04:33.465Z,99.99
2019-05-07T10:05:33.422Z,99.99
2019-05-07T10:06:33.380Z,99.99
2019-05-07T10:07:33.334Z,99.99
2019-05-07T10:08:33.281Z,99.99
2019-05-07T10:09:33.239Z,99.99
2019-05-07T10:10:33.188Z,99.99
2019-05-07T10:11:33.160Z,99.99
2019-05-07T10:12:33.125Z,99.99
2019-05-07T10:13:33.152Z,99.99
2019-05-07T10:14:33.193Z,99.99
2019-05-07T10:15:33.292Z,99.99
2019-05-07T10:16:32.916Z,99.99
2019-05-07T10:17:32.882Z,99.99
2019-05-07T10:18:32.834Z,99.99
2019-05-07T10:19:32.777Z,99.99
2019-05-07T10:20:32.921Z,99.99
2019-05-07T10:21:32.684Z,99.99
2019-05-07T10:22:32.638Z,99.99
2019-05-07T10:23:32.587Z,99.99
2019-05-07T10:24:32.547Z,99.99
2019-05-07T10:25:32.815Z,99.99
2019-05-07T10:26:32.449Z,99.99
2019-05-07T10:27:32.615Z,99.99
2019-05-07T10:28:32.368Z,99.99
2019-05-07T10:29:32.504Z,99.99
2019-05-07T10:30:32.279Z,99.99
2019-05-07T10:31:32.229Z,99.99
2019-05-07T10:32:32.358Z,99.99
2019-05-07T10:33:32.166Z,99.99
2019-05-07T10:34:32.079Z,99.99
2019-05-07T10:35:33.722Z,99.99
2019-05-07T10:36:32.172Z,99.99
2019-05-07T10:37:32.054Z,99.99
2019-05-07T10:38:31.908Z,99.99
2019-05-07T10:39:32.535Z,99.93
2019-05-07T10:40:32.700Z,99.74
2019-05-07T10:41:31.959Z,99.99
2019-05-07T10:42:32.369Z,99.99
2019-05-07T10:43:32.756Z,99.99
2019-05-07T10:44:32.140Z,99.99
2019-05-07T10:45:32.282Z,99.99
2019-05-07T10:46:32.028Z,99.99
2019-05-07T10:47:31.508Z,99.99
2019-05-07T10:48:31.988Z,99.99
2019-05-07T10:49:31.843Z,99.99
2019-05-07T10:50:38.710Z,99.99
2019-05-07T10:51:32.165Z,99.99
2019-05-07T10:52:31.914Z,99.99
2019-05-07T10:53:32.045Z,99.99
2019-05-07T10:54:31.178Z,99.99
2019-05-07T10:55:32.803Z,99.99
2019-05-07T10:56:32.638Z,99.99
2019-05-07T10:57:32.764Z,99.99
2019-05-07T10:58:32.059Z,99.99
2019-05-07T10:59:30.933Z,99.99
2019-05-07T11:00:32.929Z,99.99
2019-05-07T11:01:32.768Z,99.99
2019-05-07T11:02:32.475Z,99.99
2019-05-07T11:03:32.377Z,99.99
2019-05-07T11:04:40.184Z,99.99
2019-05-07T11:05:32.605Z,99.99
2019-05-07T11:06:32.340Z,99.99
2019-05-07T11:07:32.683Z,99.99
2019-05-07T11:08:32.724Z,99.99
2019-05-07T11:09:32.670Z,99.99
2019-05-07T11:10:32.405Z,99.99
2019-05-07T11:11:31.886Z,99.99
2019-05-07T11:12:31.945Z,99.99
2019-05-07T11:13:30.312Z,99.99
2019-05-07T11:14:32.035Z,99.99
2019-05-07T11:15:32.616Z,99.99
2019-05-07T11:16:32.011Z,99.99
2019-05-07T11:17:30.121Z,99.99
2019-05-07T11:18:32.183Z,99.99
2019-05-07T11:19:30.030Z,99.99
2019-05-07T11:20:31.894Z,99.99
2019-05-07T11:21:29.937Z,99.99
2019-05-07T11:22:29.900Z,99.99
2019-05-07T11:23:29.857Z,99.99
2019-05-07T11:24:31.994Z,99.99
2019-05-07T11:25:29.745Z,99.99
2019-05-07T11:26:29.699Z,99.99
2019-05-07T11:27:29.661Z,99.99
2019-05-07T11:28:31.688Z,99.99
2019-05-07T11:29:29.557Z,99.99
2019-05-07T11:30:29.523Z,99.99
2019-05-07T11:31:29.490Z,99.99
2019-05-07T11:32:29.433Z,99.99
2019-05-07T11:33:29.372Z,99.99
2019-05-07T11:34:29.330Z,99.99
2019-05-07T11:35:29.282Z,99.99
2019-05-07T11:36:29.255Z,99.99
2019-05-07T11:37:29.227Z,99.99
2019-05-07T11:38:29.161Z,99.99
2019-05-07T11:39:29.121Z,99.99
2019-05-07T11:40:29.061Z,99.99
2019-05-07T11:41:29.026Z,99.99
2019-05-07T11:42:28.968Z,99.99
2019-05-07T11:43:28.921Z,99.99
2019-05-07T11:44:28.890Z,99.99
2019-05-07T11:45:28.822Z,99.99
2019-05-07T11:46:28.810Z,99.99
2019-05-07T11:47:28.743Z,99.99
2019-05-07T11:48:28.699Z,99.99
2019-05-07T11:49:28.639Z,99.99
2019-05-07T11:50:28.614Z,99.99
2019-05-07T11:51:28.568Z,99.99
2019-05-07T11:52:28.513Z,99.99
2019-05-07T11:53:28.475Z,99.99
2019-05-07T11:54:28.422Z,99.99
2019-05-07T11:55:28.377Z,99.99
2019-05-07T11:56:28.319Z,99.99
2019-05-07T11:57:28.273Z,99.99
2019-05-07T11:58:28.239Z,99.99
2019-05-07T11:59:28.179Z,99.99
2019-05-07T12:00:28.151Z,99.99
2019-05-07T12:01:41.610Z,99.99
2019-05-07T12:02:28.053Z,99.99
2019-05-07T12:03:27.998Z,99.99
2019-05-07T12:04:28.210Z,99.99
2019-05-07T12:05:27.904Z,99.99
2019-05-07T12:06:27.877Z,99.99
2019-05-07T12:07:27.829Z,99.99
2019-05-07T12:08:40.929Z,99.69
2019-05-07T12:09:27.737Z,99.11
2019-05-07T12:10:27.692Z,99.11
2019-05-07T12:11:27.660Z,98.73
2019-05-07T12:12:27.600Z,98.54
2019-05-07T12:13:27.543Z,98.63
2019-05-07T12:14:31.622Z,98.44
2019-05-07T12:15:27.571Z,98.54
2019-05-07T12:16:27.401Z,97.19
2019-05-07T12:17:27.371Z,97.28
2019-05-07T12:18:27.314Z,97.47
2019-05-07T12:19:27.286Z,97.42
2019-05-07T12:20:27.221Z,97.24
2019-05-07T12:21:27.174Z,96.17
2019-05-07T12:22:27.144Z,95.78
2019-05-07T12:23:27.096Z,95.40
2019-05-07T12:24:27.043Z,95.01
2019-05-07T12:25:26.999Z,95.68
2019-05-07T12:26:26.969Z,95.40
2019-05-07T12:27:26.914Z,95.98
2019-05-07T12:28:26.858Z,95.30
2019-05-07T12:29:26.828Z,95.11
2019-05-07T12:30:26.767Z,95.59
2019-05-07T12:31:26.744Z,95.50
2019-05-07T12:32:26.683Z,95.30
2019-05-07T12:33:26.641Z,95.78
2019-05-07T12:34:26.587Z,94.92
2019-05-07T12:35:26.543Z,94.62
2019-05-07T12:36:26.492Z,94.62
2019-05-07T12:37:26.465Z,94.62
2019-05-07T12:38:26.412Z,94.87
2019-05-07T12:39:26.357Z,95.54
2019-05-07T12:40:26.338Z,95.25
2019-05-07T12:41:26.349Z,96.70
2019-05-07T12:42:26.225Z,97.28
2019-05-07T12:43:26.201Z,97.67
2019-05-07T12:44:26.139Z,97.86
2019-05-07T12:45:26.104Z,97.57
2019-05-07T12:46:26.046Z,96.99
2019-05-07T12:47:25.989Z,97.19
2019-05-07T12:48:25.953Z,96.51
2019-05-07T12:49:25.912Z,96.70
2019-05-07T12:50:25.878Z,96.99
2019-05-07T12:51:34.549Z,97.47